sensor_id;sensor_type;location;lat;lon;timestamp;P1;durP1;ratioP1;P2;durP2;ratioP2
21804;SDS011;11064;47.102;15.452;2023-07-13T04:03:30;6.72;;;4.47;;
21804;SDS011;11064;47.102;15.452;2023-07-13T04:05:58;35.15;;;5.55;;
21804;SDS011;11064;47.102;15.452;2023-07-13T04:08:26;8.68;;;4.80;;
21804;SDS011;11064;47.102;15.452;2023-07-13T04:10:53;10.65;;;5.10;;
21804;SDS011;11064;47.102;15.452;2023-07-13T04:13:19;8.48;;;5.50;;
21804;SDS011;11064;47.102;15.452;2023-07-13T04:15:45;8.77;;;6.10;;
21804;SDS011;11064;47.102;15.452;2023-07-13T04:18:11;7.07;;;5.45;;
21804;SDS011;11064;47.102;15.452;2023-07-13T04:20:37;36.97;;;6.03;;
21804;SDS011;11064;47.102;15.452;2023-07-13T04:23:03;7.88;;;5.07;;
21804;SDS011;11064;47.102;15.452;2023-07-13T04:25:29;8.27;;;5.70;;
21804;SDS011;11064;47.102;15.452;2023-07-13T04:27:55;7.53;;;5.50;;
21804;SDS011;11064;47.102;15.452;2023-07-13T04:30:22;7.72;;;5.18;;
21804;SDS011;11064;47.102;15.452;2023-07-13T04:32:50;10.00;;;5.45;;
21804;SDS011;11064;47.102;15.452;2023-07-13T04:35:18;9.85;;;5.63;;
21804;SDS011;11064;47.102;15.452;2023-07-13T04:37:48;11.68;;;5.93;;
21804;SDS011;11064;47.102;15.452;2023-07-13T04:40:18;14.32;;;6.30;;
21804;SDS011;11064;47.102;15.452;2023-07-13T04:42:45;28.55;;;7.05;;
21804;SDS011;11064;47.102;15.452;2023-07-13T04:45:16;32.67;;;6.35;;
21804;SDS011;11064;47.102;15.452;2023-07-13T04:47:43;117.97;;;10.73;;
21804;SDS011;11064;47.102;15.452;2023-07-13T04:50:12;292.65;;;14.77;;
21804;SDS011;11064;47.102;15.452;2023-07-13T04:52:43;10.25;;;5.43;;
21804;SDS011;11064;47.102;15.452;2023-07-13T04:55:10;15.00;;;5.90;;
21804;SDS011;11064;47.102;15.452;2023-07-13T04:57:36;9.32;;;4.97;;
21804;SDS011;11064;47.102;15.452;2023-07-13T05:00:03;7.22;;;5.20;;
21804;SDS011;11064;47.102;15.452;2023-07-13T05:02:31;6.13;;;4.07;;
21804;SDS011;11064;47.102;15.452;2023-07-13T05:04:58;4.47;;;3.70;;
21804;SDS011;11064;47.102;15.452;2023-07-13T05:07:25;5.38;;;3.00;;
21804;SDS011;11064;47.102;15.452;2023-07-13T05:09:51;4.53;;;2.95;;
21804;SDS011;11064;47.102;15.452;2023-07-13T05:12:17;5.10;;;2.63;;
21804;SDS011;11064;47.102;15.452;2023-07-13T05:14:43;2.92;;;2.30;;
21804;SDS011;11064;47.102;15.452;2023-07-13T05:17:09;3.58;;;2.20;;
21804;SDS011;11064;47.102;15.452;2023-07-13T05:19:35;4.45;;;1.92;;
21804;SDS011;11064;47.102;15.452;2023-07-13T05:22:01;3.85;;;1.98;;
21804;SDS011;11064;47.102;15.452;2023-07-13T05:24:28;4.03;;;2.00;;
21804;SDS011;11064;47.102;15.452;2023-07-13T05:26:54;4.30;;;1.60;;
21804;SDS011;11064;47.102;15.452;2023-07-13T05:29:20;2.47;;;1.58;;
21804;SDS011;11064;47.102;15.452;2023-07-13T05:31:47;5.50;;;1.80;;
21804;SDS011;11064;47.102;15.452;2023-07-13T05:34:14;1.75;;;1.20;;
21804;SDS011;11064;47.102;15.452;2023-07-13T05:36:40;2.63;;;1.40;;
21804;SDS011;11064;47.102;15.452;2023-07-13T05:39:06;2.67;;;1.33;;
21804;SDS011;11064;47.102;15.452;2023-07-13T05:41:33;2.65;;;1.27;;
21804;SDS011;11064;47.102;15.452;2023-07-13T05:43:59;2.00;;;1.35;;
21804;SDS011;11064;47.102;15.452;2023-07-13T05:46:25;1.70;;;1.17;;
21804;SDS011;11064;47.102;15.452;2023-07-13T05:48:51;1.95;;;1.30;;
21804;SDS011;11064;47.102;15.452;2023-07-13T05:51:17;1.95;;;1.30;;
21804;SDS011;11064;47.102;15.452;2023-07-13T05:53:43;3.30;;;1.30;;
21804;SDS011;11064;47.102;15.452;2023-07-13T05:56:09;2.83;;;1.05;;
21804;SDS011;11064;47.102;15.452;2023-07-13T05:58:35;1.35;;;1.00;;
21804;SDS011;11064;47.102;15.452;2023-07-13T06:01:02;2.88;;;1.05;;
21804;SDS011;11064;47.102;15.452;2023-07-13T06:03:34;4.07;;;1.33;;
21804;SDS011;11064;47.102;15.452;2023-07-13T06:06:03;2.97;;;1.30;;
21804;SDS011;11064;47.102;15.452;2023-07-13T06:08:30;1.83;;;1.10;;
21804;SDS011;11064;47.102;15.452;2023-07-13T06:11:07;1.60;;;1.10;;
21804;SDS011;11064;47.102;15.452;2023-07-13T06:13:39;4.07;;;1.30;;
21804;SDS011;11064;47.102;15.452;2023-07-13T06:16:05;2.35;;;1.20;;
21804;SDS011;11064;47.102;15.452;2023-07-13T06:18:33;2.53;;;1.50;;
21804;SDS011;11064;47.102;15.452;2023-07-13T06:21:00;3.97;;;1.50;;
21804;SDS011;11064;47.102;15.452;2023-07-13T06:23:31;2.58;;;1.25;;
21804;SDS011;11064;47.102;15.452;2023-07-13T06:25:57;3.33;;;1.20;;
21804;SDS011;11064;47.102;15.452;2023-07-13T06:28:23;5.80;;;1.73;;
21804;SDS011;11064;47.102;15.452;2023-07-13T06:30:48;5.40;;;1.52;;
21804;SDS011;11064;47.102;15.452;2023-07-13T06:33:14;5.03;;;1.77;;
21804;SDS011;11064;47.102;15.452;2023-07-13T06:35:40;3.08;;;1.65;;
21804;SDS011;11064;47.102;15.452;2023-07-13T06:38:06;2.13;;;1.50;;
21804;SDS011;11064;47.102;15.452;2023-07-13T06:40:32;5.05;;;2.00;;
21804;SDS011;11064;47.102;15.452;2023-07-13T06:42:57;5.15;;;1.60;;
21804;SDS011;11064;47.102;15.452;2023-07-13T06:45:23;3.92;;;1.63;;
21804;SDS011;11064;47.102;15.452;2023-07-13T06:47:49;3.75;;;1.63;;
21804;SDS011;11064;47.102;15.452;2023-07-13T06:50:15;2.78;;;1.52;;
21804;SDS011;11064;47.102;15.452;2023-07-13T06:52:41;3.53;;;1.70;;
21804;SDS011;11064;47.102;15.452;2023-07-13T06:55:07;2.22;;;1.60;;
21804;SDS011;11064;47.102;15.452;2023-07-13T06:57:33;5.57;;;1.88;;
21804;SDS011;11064;47.102;15.452;2023-07-13T06:59:59;2.60;;;1.60;;
21804;SDS011;11064;47.102;15.452;2023-07-13T07:02:25;3.38;;;1.50;;
21804;SDS011;11064;47.102;15.452;2023-07-13T07:04:51;3.60;;;1.70;;
21804;SDS011;11064;47.102;15.452;2023-07-13T07:07:17;2.85;;;1.58;;
21804;SDS011;11064;47.102;15.452;2023-07-13T07:09:42;2.38;;;1.20;;
21804;SDS011;11064;47.102;15.452;2023-07-13T07:12:08;1.77;;;1.50;;
21804;SDS011;11064;47.102;15.452;2023-07-13T07:14:34;1.80;;;1.30;;
21804;SDS011;11064;47.102;15.452;2023-07-13T07:17:00;4.28;;;1.50;;
21804;SDS011;11064;47.102;15.452;2023-07-13T07:19:27;1.33;;;1.10;;
21804;SDS011;11064;47.102;15.452;2023-07-13T07:21:55;1.88;;;1.10;;
21804;SDS011;11064;47.102;15.452;2023-07-13T07:24:20;2.83;;;1.08;;
21804;SDS011;11064;47.102;15.452;2023-07-13T07:26:46;2.22;;;1.20;;
21804;SDS011;11064;47.102;15.452;2023-07-13T07:29:12;2.53;;;1.20;;
21804;SDS011;11064;47.102;15.452;2023-07-13T07:31:38;1.95;;;1.13;;
21804;SDS011;11064;47.102;15.452;2023-07-13T07:34:04;1.35;;;1.00;;
21804;SDS011;11064;47.102;15.452;2023-07-13T07:36:30;3.65;;;1.00;;
21804;SDS011;11064;47.102;15.452;2023-07-13T07:38:55;1.42;;;1.00;;
21804;SDS011;11064;47.102;15.452;2023-07-13T07:41:21;1.00;;;0.90;;
21804;SDS011;11064;47.102;15.452;2023-07-13T07:43:47;1.73;;;0.90;;
21804;SDS011;11064;47.102;15.452;2023-07-13T07:46:13;4.53;;;1.33;;
21804;SDS011;11064;47.102;15.452;2023-07-13T07:48:39;1.20;;;0.90;;
21804;SDS011;11064;47.102;15.452;2023-07-13T07:51:04;1.10;;;1.00;;
21804;SDS011;11064;47.102;15.452;2023-07-13T07:53:30;1.02;;;0.88;;
21804;SDS011;11064;47.102;15.452;2023-07-13T07:55:56;0.98;;;0.90;;
21804;SDS011;11064;47.102;15.452;2023-07-13T07:58:22;1.38;;;1.00;;
21804;SDS011;11064;47.102;15.452;2023-07-13T08:00:48;1.17;;;1.08;;
21804;SDS011;11064;47.102;15.452;2023-07-13T08:03:13;1.33;;;0.77;;
21804;SDS011;11064;47.102;15.452;2023-07-13T08:05:39;1.77;;;1.00;;
21804;SDS011;11064;47.102;15.452;2023-07-13T08:08:05;1.58;;;0.90;;
21804;SDS011;11064;47.102;15.452;2023-07-13T08:10:31;1.98;;;1.00;;
21804;SDS011;11064;47.102;15.452;2023-07-13T08:13:00;0.93;;;0.70;;
21804;SDS011;11064;47.102;15.452;2023-07-13T08:15:26;0.88;;;0.77;;
21804;SDS011;11064;47.102;15.452;2023-07-13T08:17:51;1.25;;;0.80;;
21804;SDS011;11064;47.102;15.452;2023-07-13T08:20:17;1.20;;;0.90;;
21804;SDS011;11064;47.102;15.452;2023-07-13T08:22:43;0.65;;;0.65;;
21804;SDS011;11064;47.102;15.452;2023-07-13T08:25:09;1.30;;;1.00;;
21804;SDS011;11064;47.102;15.452;2023-07-13T08:27:35;0.93;;;0.70;;
21804;SDS011;11064;47.102;15.452;2023-07-13T08:30:01;0.93;;;0.80;;
21804;SDS011;11064;47.102;15.452;2023-07-13T08:32:27;3.17;;;0.90;;
21804;SDS011;11064;47.102;15.452;2023-07-13T08:34:53;2.20;;;0.95;;
21804;SDS011;11064;47.102;15.452;2023-07-13T08:37:19;1.65;;;0.90;;
21804;SDS011;11064;47.102;15.452;2023-07-13T08:39:45;0.93;;;0.80;;
21804;SDS011;11064;47.102;15.452;2023-07-13T08:47:48;1.83;;;0.85;;
21804;SDS011;11064;47.102;15.452;2023-07-13T08:51:10;1.00;;;0.80;;
21804;SDS011;11064;47.102;15.452;2023-07-13T08:53:50;2.15;;;0.90;;
21804;SDS011;11064;47.102;15.452;2023-07-13T08:56:20;1.25;;;0.70;;
21804;SDS011;11064;47.102;15.452;2023-07-13T08:58:49;1.30;;;0.93;;
21804;SDS011;11064;47.102;15.452;2023-07-13T09:01:28;1.00;;;0.90;;
21804;SDS011;11064;47.102;15.452;2023-07-13T09:04:19;2.22;;;1.10;;
21804;SDS011;11064;47.102;15.452;2023-07-13T09:06:56;0.77;;;0.77;;
21804;SDS011;11064;47.102;15.452;2023-07-13T09:12:35;1.10;;;1.00;;
21804;SDS011;11064;47.102;15.452;2023-07-13T09:17:56;1.00;;;0.90;;
21804;SDS011;11064;47.102;15.452;2023-07-13T09:20:34;1.00;;;0.90;;
21804;SDS011;11064;47.102;15.452;2023-07-13T09:23:22;0.85;;;0.85;;
21804;SDS011;11064;47.102;15.452;2023-07-13T09:25:54;0.85;;;0.80;;
21804;SDS011;11064;47.102;15.452;2023-07-13T09:28:37;1.25;;;0.98;;
21804;SDS011;11064;47.102;15.452;2023-07-13T09:33:40;1.40;;;0.90;;
21804;SDS011;11064;47.102;15.452;2023-07-13T09:36:30;3.03;;;1.02;;
21804;SDS011;11064;47.102;15.452;2023-07-13T09:41:35;1.33;;;0.90;;
21804;SDS011;11064;47.102;15.452;2023-07-13T09:44:07;1.25;;;1.10;;
21804;SDS011;11064;47.102;15.452;2023-07-13T09:46:36;1.30;;;0.98;;
21804;SDS011;11064;47.102;15.452;2023-07-13T09:49:02;2.85;;;1.10;;
21804;SDS011;11064;47.102;15.452;2023-07-13T09:51:28;2.13;;;1.13;;
21804;SDS011;11064;47.102;15.452;2023-07-13T09:53:54;0.98;;;0.90;;
21804;SDS011;11064;47.102;15.452;2023-07-13T09:56:23;1.92;;;0.90;;
21804;SDS011;11064;47.102;15.452;2023-07-13T09:58:52;1.60;;;1.13;;
21804;SDS011;11064;47.102;15.452;2023-07-13T10:01:32;1.67;;;1.10;;
21804;SDS011;11064;47.102;15.452;2023-07-13T10:04:00;1.45;;;1.30;;
21804;SDS011;11064;47.102;15.452;2023-07-13T10:06:26;1.05;;;0.90;;
21804;SDS011;11064;47.102;15.452;2023-07-13T10:08:52;1.20;;;1.05;;
21804;SDS011;11064;47.102;15.452;2023-07-13T10:11:22;1.42;;;1.10;;
21804;SDS011;11064;47.102;15.452;2023-07-13T10:13:58;1.50;;;1.23;;
21804;SDS011;11064;47.102;15.452;2023-07-13T10:16:39;1.17;;;1.00;;
21804;SDS011;11064;47.102;15.452;2023-07-13T10:21:55;1.17;;;1.08;;
21804;SDS011;11064;47.102;15.452;2023-07-13T10:24:25;1.50;;;1.20;;
21804;SDS011;11064;47.102;15.452;2023-07-13T10:29:29;1.30;;;1.20;;
21804;SDS011;11064;47.102;15.452;2023-07-13T10:32:01;3.17;;;1.23;;
21804;SDS011;11064;47.102;15.452;2023-07-13T10:34:27;2.25;;;1.20;;
21804;SDS011;11064;47.102;15.452;2023-07-13T10:36:53;1.42;;;1.10;;
21804;SDS011;11064;47.102;15.452;2023-07-13T10:39:21;1.20;;;1.10;;
21804;SDS011;11064;47.102;15.452;2023-07-13T10:41:53;1.77;;;1.05;;
21804;SDS011;11064;47.102;15.452;2023-07-13T10:44:29;1.05;;;0.90;;
21804;SDS011;11064;47.102;15.452;2023-07-13T10:47:07;1.33;;;1.10;;
21804;SDS011;11064;47.102;15.452;2023-07-13T10:49:37;1.88;;;0.80;;
21804;SDS011;11064;47.102;15.452;2023-07-13T10:52:04;1.00;;;0.90;;
21804;SDS011;11064;47.102;15.452;2023-07-13T10:54:31;1.80;;;1.02;;
21804;SDS011;11064;47.102;15.452;2023-07-13T10:59:46;1.20;;;1.10;;
21804;SDS011;11064;47.102;15.452;2023-07-13T11:02:23;1.58;;;1.10;;
21804;SDS011;11064;47.102;15.452;2023-07-13T11:04:52;1.25;;;1.15;;
21804;SDS011;11064;47.102;15.452;2023-07-13T11:09:50;2.05;;;1.00;;
21804;SDS011;11064;47.102;15.452;2023-07-13T11:22:48;1.30;;;1.20;;
21804;SDS011;11064;47.102;15.452;2023-07-13T11:25:35;1.23;;;1.00;;
21804;SDS011;11064;47.102;15.452;2023-07-13T11:35:49;2.47;;;1.50;;
21804;SDS011;11064;47.102;15.452;2023-07-13T11:38:19;2.80;;;1.17;;
21804;SDS011;11064;47.102;15.452;2023-07-13T11:40:48;1.42;;;1.10;;
21804;SDS011;11064;47.102;15.452;2023-07-13T11:45:43;1.83;;;1.27;;
21804;SDS011;11064;47.102;15.452;2023-07-13T11:48:28;2.30;;;1.10;;
21804;SDS011;11064;47.102;15.452;2023-07-13T11:51:00;1.10;;;1.00;;
21804;SDS011;11064;47.102;15.452;2023-07-13T11:53:34;6.60;;;2.30;;
21804;SDS011;11064;47.102;15.452;2023-07-13T11:56:11;2.22;;;1.30;;
21804;SDS011;11064;47.102;15.452;2023-07-13T11:58:38;2.90;;;1.25;;
21804;SDS011;11064;47.102;15.452;2023-07-13T12:01:04;3.05;;;1.58;;
21804;SDS011;11064;47.102;15.452;2023-07-13T12:03:30;3.65;;;1.50;;
21804;SDS011;11064;47.102;15.452;2023-07-13T12:06:03;2.08;;;1.33;;
21804;SDS011;11064;47.102;15.452;2023-07-13T12:08:39;3.58;;;1.70;;
21804;SDS011;11064;47.102;15.452;2023-07-13T12:11:09;2.42;;;1.13;;
21804;SDS011;11064;47.102;15.452;2023-07-13T12:13:43;1.42;;;1.10;;
21804;SDS011;11064;47.102;15.452;2023-07-13T12:18:56;2.05;;;1.02;;
21804;SDS011;11064;47.102;15.452;2023-07-13T12:21:25;2.42;;;1.20;;
21804;SDS011;11064;47.102;15.452;2023-07-13T12:24:03;1.90;;;1.30;;
21804;SDS011;11064;47.102;15.452;2023-07-13T12:26:39;3.50;;;1.25;;
21804;SDS011;11064;47.102;15.452;2023-07-13T12:29:06;2.35;;;1.27;;
21804;SDS011;11064;47.102;15.452;2023-07-13T12:31:42;3.05;;;1.20;;
21804;SDS011;11064;47.102;15.452;2023-07-13T12:34:14;2.45;;;1.30;;
21804;SDS011;11064;47.102;15.452;2023-07-13T12:42:24;1.73;;;1.35;;
21804;SDS011;11064;47.102;15.452;2023-07-13T12:45:12;1.83;;;1.40;;
21804;SDS011;11064;47.102;15.452;2023-07-13T12:47:50;3.97;;;1.23;;
21804;SDS011;11064;47.102;15.452;2023-07-13T12:52:50;3.67;;;1.40;;
21804;SDS011;11064;47.102;15.452;2023-07-13T12:55:18;4.10;;;1.27;;
21804;SDS011;11064;47.102;15.452;2023-07-13T12:57:53;3.38;;;1.30;;
21804;SDS011;11064;47.102;15.452;2023-07-13T13:00:22;2.85;;;1.60;;
21804;SDS011;11064;47.102;15.452;2023-07-13T13:02:52;1.77;;;1.10;;
21804;SDS011;11064;47.102;15.452;2023-07-13T13:07:50;1.77;;;1.30;;
21804;SDS011;11064;47.102;15.452;2023-07-13T13:10:16;3.15;;;1.40;;
21804;SDS011;11064;47.102;15.452;2023-07-13T13:12:42;5.32;;;1.75;;
21804;SDS011;11064;47.102;15.452;2023-07-13T13:15:09;4.25;;;1.60;;
21804;SDS011;11064;47.102;15.452;2023-07-13T13:17:36;5.30;;;1.50;;
21804;SDS011;11064;47.102;15.452;2023-07-13T13:22:58;3.92;;;1.40;;
21804;SDS011;11064;47.102;15.452;2023-07-13T13:25:24;4.38;;;1.60;;
21804;SDS011;11064;47.102;15.452;2023-07-13T13:27:50;5.05;;;1.50;;
21804;SDS011;11064;47.102;15.452;2023-07-13T13:30:17;4.93;;;1.70;;
21804;SDS011;11064;47.102;15.452;2023-07-13T13:32:44;4.70;;;1.73;;
21804;SDS011;11064;47.102;15.452;2023-07-13T13:35:21;3.15;;;1.80;;
21804;SDS011;11064;47.102;15.452;2023-07-13T13:37:47;3.45;;;1.88;;
21804;SDS011;11064;47.102;15.452;2023-07-13T13:40:16;5.70;;;1.60;;
21804;SDS011;11064;47.102;15.452;2023-07-13T13:42:43;2.45;;;1.60;;
21804;SDS011;11064;47.102;15.452;2023-07-13T13:45:09;3.00;;;1.75;;
21804;SDS011;11064;47.102;15.452;2023-07-13T13:47:38;5.07;;;1.63;;
21804;SDS011;11064;47.102;15.452;2023-07-13T13:50:12;6.10;;;1.63;;
21804;SDS011;11064;47.102;15.452;2023-07-13T13:52:47;4.03;;;1.60;;
21804;SDS011;11064;47.102;15.452;2023-07-13T13:55:20;2.35;;;1.60;;
21804;SDS011;11064;47.102;15.452;2023-07-13T13:57:49;2.40;;;1.65;;
21804;SDS011;11064;47.102;15.452;2023-07-13T14:00:15;3.28;;;1.67;;
21804;SDS011;11064;47.102;15.452;2023-07-13T14:02:46;1.33;;;1.20;;
21804;SDS011;11064;47.102;15.452;2023-07-13T14:05:15;1.70;;;1.27;;
21804;SDS011;11064;47.102;15.452;2023-07-13T14:07:45;1.70;;;1.42;;
21804;SDS011;11064;47.102;15.452;2023-07-13T14:10:12;1.50;;;1.30;;
21804;SDS011;11064;47.102;15.452;2023-07-13T14:12:48;1.83;;;1.55;;
21804;SDS011;11064;47.102;15.452;2023-07-13T14:15:23;1.92;;;1.60;;
21804;SDS011;11064;47.102;15.452;2023-07-13T14:17:51;1.80;;;1.70;;
21804;SDS011;11064;47.102;15.452;2023-07-13T14:20:18;1.70;;;1.60;;
21804;SDS011;11064;47.102;15.452;2023-07-13T14:22:47;3.47;;;2.00;;
21804;SDS011;11064;47.102;15.452;2023-07-13T14:25:15;2.30;;;1.83;;
21804;SDS011;11064;47.102;15.452;2023-07-13T14:27:43;2.58;;;1.85;;
21804;SDS011;11064;47.102;15.452;2023-07-13T14:30:13;3.35;;;1.90;;
21804;SDS011;11064;47.102;15.452;2023-07-13T14:32:40;1.73;;;1.50;;
21804;SDS011;11064;47.102;15.452;2023-07-13T14:35:08;3.50;;;1.83;;
21804;SDS011;11064;47.102;15.452;2023-07-13T14:37:37;2.10;;;1.67;;
21804;SDS011;11064;47.102;15.452;2023-07-13T14:40:18;2.53;;;1.50;;
21804;SDS011;11064;47.102;15.452;2023-07-13T14:42:51;2.25;;;1.83;;
21804;SDS011;11064;47.102;15.452;2023-07-13T14:45:18;1.55;;;1.45;;
21804;SDS011;11064;47.102;15.452;2023-07-13T14:47:45;2.55;;;1.50;;
21804;SDS011;11064;47.102;15.452;2023-07-13T14:50:18;2.00;;;1.80;;
21804;SDS011;11064;47.102;15.452;2023-07-13T14:52:46;2.00;;;1.33;;
21804;SDS011;11064;47.102;15.452;2023-07-13T14:55:13;2.22;;;1.33;;
21804;SDS011;11064;47.102;15.452;2023-07-13T14:57:41;2.72;;;1.55;;
21804;SDS011;11064;47.102;15.452;2023-07-13T15:00:14;2.60;;;1.77;;
21804;SDS011;11064;47.102;15.452;2023-07-13T15:02:47;2.20;;;1.77;;
21804;SDS011;11064;47.102;15.452;2023-07-13T15:05:22;1.80;;;1.58;;
21804;SDS011;11064;47.102;15.452;2023-07-13T15:07:51;2.67;;;1.80;;
21804;SDS011;11064;47.102;15.452;2023-07-13T15:10:23;2.33;;;1.70;;
21804;SDS011;11064;47.102;15.452;2023-07-13T15:12:58;2.70;;;1.73;;
21804;SDS011;11064;47.102;15.452;2023-07-13T15:15:49;2.75;;;2.00;;
21804;SDS011;11064;47.102;15.452;2023-07-13T15:18:20;3.00;;;1.98;;
21804;SDS011;11064;47.102;15.452;2023-07-13T15:20:48;2.58;;;2.03;;
21804;SDS011;11064;47.102;15.452;2023-07-13T15:23:17;2.83;;;2.20;;
21804;SDS011;11064;47.102;15.452;2023-07-13T15:25:44;2.88;;;2.28;;
21804;SDS011;11064;47.102;15.452;2023-07-13T15:28:11;3.78;;;2.40;;
21804;SDS011;11064;47.102;15.452;2023-07-13T15:30:47;3.88;;;2.30;;
21804;SDS011;11064;47.102;15.452;2023-07-13T15:33:27;6.28;;;2.63;;
21804;SDS011;11064;47.102;15.452;2023-07-13T15:38:22;5.03;;;2.65;;
21804;SDS011;11064;47.102;15.452;2023-07-13T15:40:50;3.97;;;3.10;;
21804;SDS011;11064;47.102;15.452;2023-07-13T15:43:18;8.82;;;3.50;;
21804;SDS011;11064;47.102;15.452;2023-07-13T15:45:45;6.40;;;3.88;;
21804;SDS011;11064;47.102;15.452;2023-07-13T15:50:42;7.05;;;4.20;;
21804;SDS011;11064;47.102;15.452;2023-07-13T15:53:13;5.60;;;4.03;;
21804;SDS011;11064;47.102;15.452;2023-07-13T15:55:44;5.90;;;4.13;;
21804;SDS011;11064;47.102;15.452;2023-07-13T15:58:11;9.57;;;4.72;;
21804;SDS011;11064;47.102;15.452;2023-07-13T16:00:39;10.10;;;4.75;;
21804;SDS011;11064;47.102;15.452;2023-07-13T16:03:06;6.63;;;4.53;;
21804;SDS011;11064;47.102;15.452;2023-07-13T16:05:34;87.97;;;6.97;;
21804;SDS011;11064;47.102;15.452;2023-07-13T16:08:00;20.95;;;5.03;;
21804;SDS011;11064;47.102;15.452;2023-07-13T16:10:35;5.97;;;4.22;;
21804;SDS011;11064;47.102;15.452;2023-07-13T16:13:04;8.63;;;4.60;;
21804;SDS011;11064;47.102;15.452;2023-07-13T16:15:30;6.95;;;3.85;;
21804;SDS011;11064;47.102;15.452;2023-07-13T16:17:56;4.32;;;3.55;;
21804;SDS011;11064;47.102;15.452;2023-07-13T16:20:22;4.78;;;3.60;;
21804;SDS011;11064;47.102;15.452;2023-07-13T16:22:50;6.35;;;4.00;;
21804;SDS011;11064;47.102;15.452;2023-07-13T16:25:21;6.10;;;4.30;;
21804;SDS011;11064;47.102;15.452;2023-07-13T16:28:09;8.95;;;4.70;;
21804;SDS011;11064;47.102;15.452;2023-07-13T16:30:35;11.77;;;5.28;;
21804;SDS011;11064;47.102;15.452;2023-07-13T16:33:02;7.25;;;5.32;;
21804;SDS011;11064;47.102;15.452;2023-07-13T16:35:31;8.40;;;5.80;;
21804;SDS011;11064;47.102;15.452;2023-07-13T16:38:03;7.07;;;5.38;;
21804;SDS011;11064;47.102;15.452;2023-07-13T16:40:46;7.53;;;4.70;;
21804;SDS011;11064;47.102;15.452;2023-07-13T16:43:17;6.65;;;5.60;;
21804;SDS011;11064;47.102;15.452;2023-07-13T16:45:47;8.27;;;5.20;;
21804;SDS011;11064;47.102;15.452;2023-07-13T16:48:16;6.57;;;4.97;;
21804;SDS011;11064;47.102;15.452;2023-07-13T16:50:45;46.00;;;6.78;;
21804;SDS011;11064;47.102;15.452;2023-07-13T16:53:21;7.93;;;5.05;;
21804;SDS011;11064;47.102;15.452;2023-07-13T16:55:49;11.27;;;5.50;;
21804;SDS011;11064;47.102;15.452;2023-07-13T16:58:15;8.70;;;5.45;;
21804;SDS011;11064;47.102;15.452;2023-07-13T17:00:43;8.50;;;5.10;;
21804;SDS011;11064;47.102;15.452;2023-07-13T17:03:09;49.15;;;7.35;;
21804;SDS011;11064;47.102;15.452;2023-07-13T17:05:41;26.85;;;6.20;;
21804;SDS011;11064;47.102;15.452;2023-07-13T17:08:31;10.93;;;5.57;;
21804;SDS011;11064;47.102;15.452;2023-07-13T17:10:58;7.28;;;5.50;;
21804;SDS011;11064;47.102;15.452;2023-07-13T17:13:26;8.65;;;5.60;;
21804;SDS011;11064;47.102;15.452;2023-07-13T17:15:55;5.97;;;5.25;;
21804;SDS011;11064;47.102;15.452;2023-07-13T17:18:23;6.50;;;4.85;;
21804;SDS011;11064;47.102;15.452;2023-07-13T17:21:04;9.40;;;5.35;;
21804;SDS011;11064;47.102;15.452;2023-07-13T17:23:32;39.53;;;6.65;;
21804;SDS011;11064;47.102;15.452;2023-07-13T17:26:00;61.35;;;7.13;;
21804;SDS011;11064;47.102;15.452;2023-07-13T17:28:26;19.00;;;5.30;;
21804;SDS011;11064;47.102;15.452;2023-07-13T17:30:55;8.70;;;5.95;;
21804;SDS011;11064;47.102;15.452;2023-07-13T17:35:56;287.75;;;16.92;;
21804;SDS011;11064;47.102;15.452;2023-07-13T17:38:29;300.65;;;14.32;;
21804;SDS011;11064;47.102;15.452;2023-07-13T17:40:59;500.40;;;20.05;;
21804;SDS011;11064;47.102;15.452;2023-07-13T17:43:26;218.93;;;12.18;;
21804;SDS011;11064;47.102;15.452;2023-07-13T17:45:54;484.60;;;18.83;;
21804;SDS011;11064;47.102;15.452;2023-07-13T17:48:22;57.60;;;7.38;;
21804;SDS011;11064;47.102;15.452;2023-07-13T17:50:49;34.50;;;6.90;;
21804;SDS011;11064;47.102;15.452;2023-07-13T17:53:17;12.13;;;6.78;;
21804;SDS011;11064;47.102;15.452;2023-07-13T17:55:45;12.35;;;6.75;;
21804;SDS011;11064;47.102;15.452;2023-07-13T17:58:16;11.75;;;6.95;;
21804;SDS011;11064;47.102;15.452;2023-07-13T18:00:47;21.55;;;6.78;;
21804;SDS011;11064;47.102;15.452;2023-07-13T18:03:16;18.75;;;6.63;;
21804;SDS011;11064;47.102;15.452;2023-07-13T18:05:54;124.32;;;8.63;;
21804;SDS011;11064;47.102;15.452;2023-07-13T18:08:21;384.40;;;17.23;;
21804;SDS011;11064;47.102;15.452;2023-07-13T18:10:55;724.03;;;27.77;;
21804;SDS011;11064;47.102;15.452;2023-07-13T18:13:22;395.15;;;19.45;;
21804;SDS011;11064;47.102;15.452;2023-07-13T18:15:51;187.32;;;10.30;;
21804;SDS011;11064;47.102;15.452;2023-07-13T18:18:19;398.77;;;17.38;;
21804;SDS011;11064;47.102;15.452;2023-07-13T18:20:47;19.55;;;7.10;;
21804;SDS011;11064;47.102;15.452;2023-07-13T18:23:15;250.02;;;11.60;;
21804;SDS011;11064;47.102;15.452;2023-07-13T18:25:46;9.60;;;5.78;;
21804;SDS011;11064;47.102;15.452;2023-07-13T18:28:15;535.50;;;23.33;;
21804;SDS011;11064;47.102;15.452;2023-07-13T18:30:49;268.70;;;15.60;;
21804;SDS011;11064;47.102;15.452;2023-07-13T18:33:24;140.00;;;9.40;;
21804;SDS011;11064;47.102;15.452;2023-07-13T18:35:55;239.70;;;14.50;;
21804;SDS011;11064;47.102;15.452;2023-07-13T18:38:27;6.57;;;4.47;;
21804;SDS011;11064;47.102;15.452;2023-07-13T18:40:55;6.30;;;4.47;;
21804;SDS011;11064;47.102;15.452;2023-07-13T18:43:22;5.78;;;4.35;;
21804;SDS011;11064;47.102;15.452;2023-07-13T18:45:56;5.15;;;3.78;;
21804;SDS011;11064;47.102;15.452;2023-07-13T18:48:32;7.40;;;4.50;;
21804;SDS011;11064;47.102;15.452;2023-07-13T18:50:58;7.07;;;4.47;;
21804;SDS011;11064;47.102;15.452;2023-07-13T18:53:26;8.20;;;4.13;;
21804;SDS011;11064;47.102;15.452;2023-07-13T18:55:52;6.40;;;4.43;;
21804;SDS011;11064;47.102;15.452;2023-07-13T18:58:25;5.40;;;4.57;;
21804;SDS011;11064;47.102;15.452;2023-07-13T19:00:54;16.52;;;5.35;;
21804;SDS011;11064;47.102;15.452;2023-07-13T19:03:23;753.58;;;28.85;;
21804;SDS011;11064;47.102;15.452;2023-07-13T19:05:54;239.57;;;10.98;;
21804;SDS011;11064;47.102;15.452;2023-07-13T19:08:21;13.32;;;6.00;;
21804;SDS011;11064;47.102;15.452;2023-07-13T19:10:51;7.28;;;5.30;;
21804;SDS011;11064;47.102;15.452;2023-07-13T19:13:19;9.98;;;4.85;;
21804;SDS011;11064;47.102;15.452;2023-07-13T19:15:48;8.25;;;5.05;;
21804;SDS011;11064;47.102;15.452;2023-07-13T19:18:14;7.88;;;5.00;;
21804;SDS011;11064;47.102;15.452;2023-07-13T19:20:42;440.75;;;17.15;;
21804;SDS011;11064;47.102;15.452;2023-07-13T19:23:34;68.13;;;7.60;;
21804;SDS011;11064;47.102;15.452;2023-07-13T19:26:05;641.75;;;21.88;;
21804;SDS011;11064;47.102;15.452;2023-07-13T19:28:41;742.15;;;26.85;;
21804;SDS011;11064;47.102;15.452;2023-07-13T19:31:19;44.10;;;6.25;;
21804;SDS011;11064;47.102;15.452;2023-07-13T19:33:46;143.18;;;8.07;;
21804;SDS011;11064;47.102;15.452;2023-07-13T19:36:16;43.85;;;6.18;;
21804;SDS011;11064;47.102;15.452;2023-07-13T19:38:47;876.15;;;30.85;;
21804;SDS011;11064;47.102;15.452;2023-07-13T19:41:16;578.58;;;20.42;;
21804;SDS011;11064;47.102;15.452;2023-07-13T19:43:45;504.63;;;18.33;;
21804;SDS011;11064;47.102;15.452;2023-07-13T19:48:50;760.55;;;31.08;;
21804;SDS011;11064;47.102;15.452;2023-07-13T19:51:17;975.90;;;32.05;;
21804;SDS011;11064;47.102;15.452;2023-07-13T19:53:48;357.98;;;13.95;;
21804;SDS011;11064;47.102;15.452;2023-07-13T19:56:16;691.47;;;23.00;;
21804;SDS011;11064;47.102;15.452;2023-07-13T19:58:44;738.92;;;24.55;;
21804;SDS011;11064;47.102;15.452;2023-07-13T20:01:12;739.50;;;24.40;;